ARU932 TNCC-TNCA
Flight info
| Callsign | ARU932 |
|---|---|
| Flight time | 0h 17m |
| Altitude | 8000 |
| Route | ARUB1K ELUMO DCT DAVLA DCT BOMDA |
| Aircraft | A320/M-SDE3FGHIRWY/LB1 |
Departure
| Time | 2026-04-23 20:39 |
|---|---|
| Airport | Hato International Airport (TNCC) |
Arrival
| Time | 2026-04-23 20:56 |
|---|---|
| Airport | Queen Beatrix International Airport (TNCA) |
| Time | Latitude | Longitude | Altitude | Speed | Heading |
|---|---|---|---|---|---|
| 2026-04-23 20:19 | 12.18557 | -68.95731 | 43 ft | 0 kts | 191° |
| 2026-04-23 20:31 | 12.18561 | -68.95730 | 43 ft | 3 kts | 192° |
| 2026-04-23 20:31 | 12.18587 | -68.95724 | 39 ft | 4 kts | 195° |
| 2026-04-23 20:32 | 12.18613 | -68.95716 | 40 ft | 4 kts | 202° |
| 2026-04-23 20:32 | 12.18637 | -68.95703 | 43 ft | 4 kts | 220° |
| 2026-04-23 20:32 | 12.18650 | -68.95685 | 39 ft | 3 kts | 277° |
| 2026-04-23 20:32 | 12.18649 | -68.95677 | 43 ft | 0 kts | 282° |
| 2026-04-23 20:34 | 12.18654 | -68.95705 | 43 ft | 15 kts | 282° |
| 2026-04-23 20:35 | 12.18681 | -68.95841 | 43 ft | 22 kts | 282° |
| 2026-04-23 20:35 | 12.18716 | -68.96004 | 41 ft | 25 kts | 282° |
| 2026-04-23 20:35 | 12.18756 | -68.96188 | 43 ft | 28 kts | 282° |
| 2026-04-23 20:35 | 12.18799 | -68.96390 | 43 ft | 31 kts | 282° |
| 2026-04-23 20:36 | 12.18847 | -68.96613 | 42 ft | 32 kts | 284° |
| 2026-04-23 20:36 | 12.18873 | -68.96765 | 41 ft | 15 kts | 281° |
| 2026-04-23 20:36 | 12.18939 | -68.96814 | 40 ft | 15 kts | 8° |
| 2026-04-23 20:36 | 12.19046 | -68.96783 | 41 ft | 16 kts | 44° |
| 2026-04-23 20:37 | 12.19052 | -68.96738 | 42 ft | 0 kts | 110° |
| 2026-04-23 20:38 | 12.19044 | -68.96708 | 42 ft | 25 kts | 103° |
| 2026-04-23 20:38 | 12.18952 | -68.96267 | 44 ft | 98 kts | 102° |
| 2026-04-23 20:38 | 12.18769 | -68.95384 | 59 ft | 150 kts | 100° |
| 2026-04-23 20:39 | 12.18566 | -68.94346 | 750 ft | 149 kts | 96° |
| 2026-04-23 20:39 | 12.18562 | -68.93371 | 1708 ft | 126 kts | 62° |
| 2026-04-23 20:39 | 12.19222 | -68.92763 | 1931 ft | 160 kts | 23° |
| 2026-04-23 20:39 | 12.20516 | -68.92764 | 1919 ft | 211 kts | 342° |
| 2026-04-23 20:40 | 12.21779 | -68.93696 | 2179 ft | 242 kts | 309° |
| 2026-04-23 20:40 | 12.22409 | -68.95383 | 2636 ft | 272 kts | 277° |
| 2026-04-23 20:40 | 12.22615 | -68.97396 | 3148 ft | 297 kts | 278° |
| 2026-04-23 20:40 | 12.22972 | -68.99558 | 3599 ft | 321 kts | 280° |
| 2026-04-23 20:41 | 12.23428 | -69.01876 | 3982 ft | 343 kts | 281° |
| 2026-04-23 20:41 | 12.23923 | -69.04302 | 4701 ft | 352 kts | 280° |
| 2026-04-23 20:41 | 12.24412 | -69.06756 | 5546 ft | 353 kts | 281° |
| 2026-04-23 20:41 | 12.24889 | -69.09235 | 6360 ft | 356 kts | 280° |
| 2026-04-23 20:42 | 12.25350 | -69.11730 | 7102 ft | 359 kts | 280° |
| 2026-04-23 20:42 | 12.25802 | -69.14253 | 7662 ft | 362 kts | 280° |
| 2026-04-23 20:42 | 12.26254 | -69.16797 | 7855 ft | 364 kts | 280° |
| 2026-04-23 20:42 | 12.26706 | -69.19343 | 7908 ft | 364 kts | 280° |
| 2026-04-23 20:43 | 12.27160 | -69.21897 | 7920 ft | 365 kts | 280° |
| 2026-04-23 20:43 | 12.27612 | -69.24448 | 7913 ft | 365 kts | 280° |
| 2026-04-23 20:43 | 12.28065 | -69.27002 | 7914 ft | 365 kts | 280° |
| 2026-04-23 20:43 | 12.28518 | -69.29555 | 7902 ft | 365 kts | 280° |
| 2026-04-23 20:44 | 12.28973 | -69.32110 | 7915 ft | 365 kts | 280° |
| 2026-04-23 20:44 | 12.29428 | -69.34668 | 7914 ft | 366 kts | 280° |
| 2026-04-23 20:44 | 12.29884 | -69.37222 | 7903 ft | 365 kts | 280° |
| 2026-04-23 20:44 | 12.30340 | -69.39774 | 7916 ft | 365 kts | 280° |
| 2026-04-23 20:45 | 12.30799 | -69.42332 | 7920 ft | 366 kts | 281° |
| 2026-04-23 20:45 | 12.31258 | -69.44893 | 7923 ft | 365 kts | 280° |
| 2026-04-23 20:45 | 12.31559 | -69.46585 | 7924 ft | 365 kts | 280° |
| 2026-04-23 20:45 | 12.32035 | -69.49139 | 7924 ft | 366 kts | 284° |
| 2026-04-23 20:46 | 12.33448 | -69.52251 | 7931 ft | 365 kts | 301° |
| 2026-04-23 20:46 | 12.34745 | -69.54481 | 7928 ft | 365 kts | 301° |
| 2026-04-23 20:46 | 12.36026 | -69.56727 | 7925 ft | 365 kts | 298° |
| 2026-04-23 20:46 | 12.37145 | -69.59045 | 7744 ft | 361 kts | 294° |
| 2026-04-23 20:47 | 12.37807 | -69.60628 | 7390 ft | 356 kts | 291° |
| 2026-04-23 20:47 | 12.38702 | -69.62972 | 6798 ft | 351 kts | 291° |
| 2026-04-23 20:47 | 12.39584 | -69.65282 | 6218 ft | 348 kts | 291° |
| 2026-04-23 20:47 | 12.40453 | -69.67547 | 5954 ft | 347 kts | 291° |
| 2026-04-23 20:48 | 12.41338 | -69.69850 | 5901 ft | 348 kts | 291° |
| 2026-04-23 20:48 | 12.42223 | -69.72160 | 5905 ft | 349 kts | 291° |
| 2026-04-23 20:48 | 12.43107 | -69.74474 | 5903 ft | 349 kts | 291° |
| 2026-04-23 20:48 | 12.43979 | -69.76753 | 5551 ft | 334 kts | 291° |
| 2026-04-23 20:49 | 12.44802 | -69.78893 | 4974 ft | 317 kts | 291° |
| 2026-04-23 20:49 | 12.45635 | -69.80959 | 4226 ft | 312 kts | 293° |
| 2026-04-23 20:49 | 12.46492 | -69.83019 | 3981 ft | 316 kts | 293° |
| 2026-04-23 20:49 | 12.47352 | -69.85096 | 3871 ft | 318 kts | 293° |
| 2026-04-23 20:50 | 12.48196 | -69.87134 | 3889 ft | 297 kts | 293° |
| 2026-04-23 20:50 | 12.48970 | -69.88974 | 3816 ft | 269 kts | 294° |
| 2026-04-23 20:50 | 12.49704 | -69.90677 | 3697 ft | 257 kts | 294° |
| 2026-04-23 20:50 | 12.50404 | -69.92328 | 3577 ft | 249 kts | 294° |
| 2026-04-23 20:51 | 12.51082 | -69.93931 | 3437 ft | 241 kts | 294° |
| 2026-04-23 20:51 | 12.51731 | -69.95474 | 3326 ft | 231 kts | 294° |
| 2026-04-23 20:51 | 12.52349 | -69.96966 | 3110 ft | 225 kts | 294° |
| 2026-04-23 20:51 | 12.52962 | -69.98434 | 2868 ft | 221 kts | 294° |
| 2026-04-23 20:52 | 12.53540 | -69.99808 | 2783 ft | 200 kts | 295° |
| 2026-04-23 20:52 | 12.54077 | -70.01091 | 2601 ft | 191 kts | 294° |
| 2026-04-23 20:52 | 12.54591 | -70.02296 | 2469 ft | 182 kts | 294° |
| 2026-04-23 20:52 | 12.55089 | -70.03471 | 2287 ft | 178 kts | 294° |
| 2026-04-23 20:53 | 12.55540 | -70.04666 | 1963 ft | 184 kts | 291° |
| 2026-04-23 20:53 | 12.55757 | -70.05927 | 1815 ft | 173 kts | 261° |
| 2026-04-23 20:53 | 12.55243 | -70.06960 | 1588 ft | 162 kts | 220° |
| 2026-04-23 20:53 | 12.54344 | -70.07519 | 1425 ft | 140 kts | 199° |
| 2026-04-23 20:54 | 12.53464 | -70.07797 | 1225 ft | 128 kts | 187° |
| 2026-04-23 20:54 | 12.52487 | -70.07748 | 1065 ft | 153 kts | 154° |
| 2026-04-23 20:54 | 12.51711 | -70.07043 | 886 ft | 148 kts | 121° |
| 2026-04-23 20:54 | 12.51240 | -70.06137 | 652 ft | 141 kts | 109° |
| 2026-04-23 20:55 | 12.51007 | -70.05171 | 472 ft | 141 kts | 100° |
| 2026-04-23 20:55 | 12.50781 | -70.04187 | 311 ft | 142 kts | 103° |
| 2026-04-23 20:55 | 12.50539 | -70.03211 | 147 ft | 140 kts | 102° |
| 2026-04-23 20:55 | 12.50311 | -70.02256 | 43 ft | 128 kts | 101° |
| 2026-04-23 20:56 | 12.50136 | -70.01508 | 47 ft | 85 kts | 104° |
| 2026-04-23 20:56 | 12.50040 | -70.01097 | 50 ft | 36 kts | 106° |
| 2026-04-23 20:56 | 12.50063 | -70.01000 | 50 ft | 12 kts | 353° |
| 2026-04-23 20:56 | 12.50163 | -70.00990 | 48 ft | 17 kts | 12° |
| 2026-04-23 20:57 | 12.50284 | -70.00973 | 46 ft | 15 kts | 15° |
| 2026-04-23 20:57 | 12.50320 | -70.00963 | 45 ft | 4 kts | 14° |
| 2026-04-23 20:57 | 12.50330 | -70.00961 | 43 ft | 0 kts | 14° |